sensor_id;sensor_type;location;lat;lon;timestamp;temperature;humidity
40756;DHT22;26461;45.630;9.418;2023-02-27T00:00:38;4.70;99.90
40756;DHT22;26461;45.630;9.418;2023-02-27T00:03:50;4.70;99.90
40756;DHT22;26461;45.630;9.418;2023-02-27T00:07:00;4.70;99.90
40756;DHT22;26461;45.630;9.418;2023-02-27T00:10:11;4.70;99.90
40756;DHT22;26461;45.630;9.418;2023-02-27T00:13:22;4.70;99.90
40756;DHT22;26461;45.630;9.418;2023-02-27T00:16:32;4.70;99.90
40756;DHT22;26461;45.630;9.418;2023-02-27T00:19:43;4.70;99.90
40756;DHT22;26461;45.630;9.418;2023-02-27T00:22:53;4.70;99.90
40756;DHT22;26461;45.630;9.418;2023-02-27T00:26:03;4.70;99.90
40756;DHT22;26461;45.630;9.418;2023-02-27T00:29:13;4.60;99.90
40756;DHT22;26461;45.630;9.418;2023-02-27T00:32:18;4.50;99.90
40756;DHT22;26461;45.630;9.418;2023-02-27T00:35:24;4.50;99.90
40756;DHT22;26461;45.630;9.418;2023-02-27T00:38:29;4.50;99.90
40756;DHT22;26461;45.630;9.418;2023-02-27T00:41:39;4.40;99.90
40756;DHT22;26461;45.630;9.418;2023-02-27T00:44:49;4.30;99.90
40756;DHT22;26461;45.630;9.418;2023-02-27T00:47:59;4.30;99.90
40756;DHT22;26461;45.630;9.418;2023-02-27T00:51:04;4.20;99.90
40756;DHT22;26461;45.630;9.418;2023-02-27T00:54:14;4.10;99.90
40756;DHT22;26461;45.630;9.418;2023-02-27T00:57:24;4.10;99.90
40756;DHT22;26461;45.630;9.418;2023-02-27T01:00:34;4.40;99.90
40756;DHT22;26461;45.630;9.418;2023-02-27T01:03:44;4.00;99.90
40756;DHT22;26461;45.630;9.418;2023-02-27T01:06:54;3.90;99.90
40756;DHT22;26461;45.630;9.418;2023-02-27T01:10:05;3.80;99.90
40756;DHT22;26461;45.630;9.418;2023-02-27T01:13:15;3.90;99.90
40756;DHT22;26461;45.630;9.418;2023-02-27T01:16:25;3.80;99.90
40756;DHT22;26461;45.630;9.418;2023-02-27T01:19:35;3.80;99.90
40756;DHT22;26461;45.630;9.418;2023-02-27T01:22:45;3.80;99.90
40756;DHT22;26461;45.630;9.418;2023-02-27T01:25:50;3.80;99.90
40756;DHT22;26461;45.630;9.418;2023-02-27T01:28:59;3.80;99.90
40756;DHT22;26461;45.630;9.418;2023-02-27T01:32:05;4.20;99.90
40756;DHT22;26461;45.630;9.418;2023-02-27T01:35:14;3.90;99.90
40756;DHT22;26461;45.630;9.418;2023-02-27T01:38:26;3.80;99.90
40756;DHT22;26461;45.630;9.418;2023-02-27T01:41:37;3.80;99.90
40756;DHT22;26461;45.630;9.418;2023-02-27T01:51:30;3.70;99.90
40756;DHT22;26461;45.630;9.418;2023-02-27T01:54:41;3.70;99.90
40756;DHT22;26461;45.630;9.418;2023-02-27T01:57:52;3.70;99.90
40756;DHT22;26461;45.630;9.418;2023-02-27T02:01:04;3.70;99.90
40756;DHT22;26461;45.630;9.418;2023-02-27T02:04:23;3.70;99.90
40756;DHT22;26461;45.630;9.418;2023-02-27T02:07:37;3.70;99.90
40756;DHT22;26461;45.630;9.418;2023-02-27T02:10:43;3.60;99.90
40756;DHT22;26461;45.630;9.418;2023-02-27T02:13:58;4.90;99.90
40756;DHT22;26461;45.630;9.418;2023-02-27T02:17:52;3.70;99.90
40756;DHT22;26461;45.630;9.418;2023-02-27T02:36:09;4.00;99.90
40756;DHT22;26461;45.630;9.418;2023-02-27T02:43:07;4.10;99.90
40756;DHT22;26461;45.630;9.418;2023-02-27T02:50:10;4.10;99.90
40756;DHT22;26461;45.630;9.418;2023-02-27T02:56:59;4.10;99.90
40756;DHT22;26461;45.630;9.418;2023-02-27T03:00:21;4.10;99.90
40756;DHT22;26461;45.630;9.418;2023-02-27T03:03:39;4.10;99.90
40756;DHT22;26461;45.630;9.418;2023-02-27T03:07:24;4.10;99.90
40756;DHT22;26461;45.630;9.418;2023-02-27T03:10:36;4.20;99.90
40756;DHT22;26461;45.630;9.418;2023-02-27T03:13:50;4.20;99.90
40756;DHT22;26461;45.630;9.418;2023-02-27T03:17:08;4.20;99.90
40756;DHT22;26461;45.630;9.418;2023-02-27T03:20:34;4.30;99.90
40756;DHT22;26461;45.630;9.418;2023-02-27T03:23:47;4.20;99.90
40756;DHT22;26461;45.630;9.418;2023-02-27T03:26:56;4.20;99.90
40756;DHT22;26461;45.630;9.418;2023-02-27T03:33:28;4.20;99.90
40756;DHT22;26461;45.630;9.418;2023-02-27T03:37:33;4.10;99.90
40756;DHT22;26461;45.630;9.418;2023-02-27T03:40:39;4.10;99.90
40756;DHT22;26461;45.630;9.418;2023-02-27T03:44:13;4.00;99.90
40756;DHT22;26461;45.630;9.418;2023-02-27T03:47:24;4.00;99.90
40756;DHT22;26461;45.630;9.418;2023-02-27T03:50:35;4.00;99.90
40756;DHT22;26461;45.630;9.418;2023-02-27T03:54:21;4.00;99.90
40756;DHT22;26461;45.630;9.418;2023-02-27T03:57:34;3.90;99.90
40756;DHT22;26461;45.630;9.418;2023-02-27T04:00:45;3.90;99.90
40756;DHT22;26461;45.630;9.418;2023-02-27T04:04:00;3.80;99.90
40756;DHT22;26461;45.630;9.418;2023-02-27T04:11:31;3.60;99.90
40756;DHT22;26461;45.630;9.418;2023-02-27T04:16:06;3.50;99.90
40756;DHT22;26461;45.630;9.418;2023-02-27T04:19:34;3.40;99.90
40756;DHT22;26461;45.630;9.418;2023-02-27T04:22:45;3.40;99.90
40756;DHT22;26461;45.630;9.418;2023-02-27T04:33:10;3.30;99.90
40756;DHT22;26461;45.630;9.418;2023-02-27T04:36:42;3.30;99.90
40756;DHT22;26461;45.630;9.418;2023-02-27T04:40:18;3.30;99.90
40756;DHT22;26461;45.630;9.418;2023-02-27T04:43:30;3.20;99.90
40756;DHT22;26461;45.630;9.418;2023-02-27T04:46:43;3.20;99.90
40756;DHT22;26461;45.630;9.418;2023-02-27T04:49:58;3.30;99.90
40756;DHT22;26461;45.630;9.418;2023-02-27T04:53:27;3.30;99.90
40756;DHT22;26461;45.630;9.418;2023-02-27T04:56:38;3.30;99.90
40756;DHT22;26461;45.630;9.418;2023-02-27T04:59:49;3.40;99.90
40756;DHT22;26461;45.630;9.418;2023-02-27T05:03:06;3.40;99.90
40756;DHT22;26461;45.630;9.418;2023-02-27T05:06:18;3.40;99.90
40756;DHT22;26461;45.630;9.418;2023-02-27T05:09:31;3.30;99.90
40756;DHT22;26461;45.630;9.418;2023-02-27T05:12:56;3.20;99.90
40756;DHT22;26461;45.630;9.418;2023-02-27T05:16:30;3.20;99.90
40756;DHT22;26461;45.630;9.418;2023-02-27T05:19:41;3.20;99.90
40756;DHT22;26461;45.630;9.418;2023-02-27T05:22:59;3.20;99.90
40756;DHT22;26461;45.630;9.418;2023-02-27T05:26:17;3.20;99.90
40756;DHT22;26461;45.630;9.418;2023-02-27T05:32:53;3.20;99.90
40756;DHT22;26461;45.630;9.418;2023-02-27T05:36:22;3.20;99.90
40756;DHT22;26461;45.630;9.418;2023-02-27T05:39:35;3.20;99.90
40756;DHT22;26461;45.630;9.418;2023-02-27T05:42:55;3.20;99.90
40756;DHT22;26461;45.630;9.418;2023-02-27T05:46:12;3.30;99.90
40756;DHT22;26461;45.630;9.418;2023-02-27T05:49:27;3.20;99.90
40756;DHT22;26461;45.630;9.418;2023-02-27T05:52:39;3.30;99.90
40756;DHT22;26461;45.630;9.418;2023-02-27T05:55:55;3.30;99.90
40756;DHT22;26461;45.630;9.418;2023-02-27T05:59:17;3.30;99.90
40756;DHT22;26461;45.630;9.418;2023-02-27T06:02:31;3.30;99.90
40756;DHT22;26461;45.630;9.418;2023-02-27T06:05:42;3.20;99.90
40756;DHT22;26461;45.630;9.418;2023-02-27T06:08:52;3.10;99.90
40756;DHT22;26461;45.630;9.418;2023-02-27T06:12:02;3.00;99.90
40756;DHT22;26461;45.630;9.418;2023-02-27T06:15:12;2.90;99.90
40756;DHT22;26461;45.630;9.418;2023-02-27T06:18:22;2.90;99.90
40756;DHT22;26461;45.630;9.418;2023-02-27T06:21:32;2.90;99.90
40756;DHT22;26461;45.630;9.418;2023-02-27T06:24:42;2.80;99.90
40756;DHT22;26461;45.630;9.418;2023-02-27T06:27:47;2.80;99.90
40756;DHT22;26461;45.630;9.418;2023-02-27T06:30:57;2.80;99.90
40756;DHT22;26461;45.630;9.418;2023-02-27T06:34:02;2.80;99.90
40756;DHT22;26461;45.630;9.418;2023-02-27T06:37:07;2.80;99.90
40756;DHT22;26461;45.630;9.418;2023-02-27T06:40:17;2.80;99.90
40756;DHT22;26461;45.630;9.418;2023-02-27T06:43:27;2.80;99.90
40756;DHT22;26461;45.630;9.418;2023-02-27T06:46:37;2.80;99.90
40756;DHT22;26461;45.630;9.418;2023-02-27T06:49:47;2.80;99.90
40756;DHT22;26461;45.630;9.418;2023-02-27T06:52:57;2.80;99.90
40756;DHT22;26461;45.630;9.418;2023-02-27T06:56:07;2.80;99.90
40756;DHT22;26461;45.630;9.418;2023-02-27T06:59:17;2.80;99.90
40756;DHT22;26461;45.630;9.418;2023-02-27T07:02:28;2.80;99.90
40756;DHT22;26461;45.630;9.418;2023-02-27T07:05:39;2.90;99.90
40756;DHT22;26461;45.630;9.418;2023-02-27T07:08:48;2.90;99.90
40756;DHT22;26461;45.630;9.418;2023-02-27T07:11:58;3.00;99.90
40756;DHT22;26461;45.630;9.418;2023-02-27T07:15:09;3.00;99.90
40756;DHT22;26461;45.630;9.418;2023-02-27T07:18:19;3.00;99.90
40756;DHT22;26461;45.630;9.418;2023-02-27T07:21:29;3.00;99.90
40756;DHT22;26461;45.630;9.418;2023-02-27T07:24:39;3.10;99.90
40756;DHT22;26461;45.630;9.418;2023-02-27T07:27:49;3.10;99.90
40756;DHT22;26461;45.630;9.418;2023-02-27T07:31:00;3.10;99.90
40756;DHT22;26461;45.630;9.418;2023-02-27T07:34:10;3.20;99.90
40756;DHT22;26461;45.630;9.418;2023-02-27T07:37:20;3.20;99.90
40756;DHT22;26461;45.630;9.418;2023-02-27T07:40:31;3.20;99.90
40756;DHT22;26461;45.630;9.418;2023-02-27T07:43:41;3.20;99.90
40756;DHT22;26461;45.630;9.418;2023-02-27T07:46:50;3.20;99.90
40756;DHT22;26461;45.630;9.418;2023-02-27T07:50:00;3.20;99.90
40756;DHT22;26461;45.630;9.418;2023-02-27T07:53:10;3.20;99.90
40756;DHT22;26461;45.630;9.418;2023-02-27T07:56:26;3.20;99.90
40756;DHT22;26461;45.630;9.418;2023-02-27T07:59:40;3.20;99.90
40756;DHT22;26461;45.630;9.418;2023-02-27T08:02:45;3.20;99.90
40756;DHT22;26461;45.630;9.418;2023-02-27T08:05:50;3.10;99.90
40756;DHT22;26461;45.630;9.418;2023-02-27T08:08:55;2.90;99.90
40756;DHT22;26461;45.630;9.418;2023-02-27T08:12:25;3.00;99.90
40756;DHT22;26461;45.630;9.418;2023-02-27T08:15:30;3.00;99.90
40756;DHT22;26461;45.630;9.418;2023-02-27T08:22:35;3.10;99.90
40756;DHT22;26461;45.630;9.418;2023-02-27T08:34:27;3.10;99.90
40756;DHT22;26461;45.630;9.418;2023-02-27T08:37:33;3.10;99.90
40756;DHT22;26461;45.630;9.418;2023-02-27T08:40:38;3.20;99.90
40756;DHT22;26461;45.630;9.418;2023-02-27T08:44:18;3.20;99.90
40756;DHT22;26461;45.630;9.418;2023-02-27T08:47:53;3.20;99.90
40756;DHT22;26461;45.630;9.418;2023-02-27T08:55:03;3.30;99.90
40756;DHT22;26461;45.630;9.418;2023-02-27T08:58:13;3.30;99.90
40756;DHT22;26461;45.630;9.418;2023-02-27T09:05:27;3.40;99.90
40756;DHT22;26461;45.630;9.418;2023-02-27T09:13:44;3.50;99.90
40756;DHT22;26461;45.630;9.418;2023-02-27T09:17:20;3.60;99.90
40756;DHT22;26461;45.630;9.418;2023-02-27T09:20:25;3.60;99.90
40756;DHT22;26461;45.630;9.418;2023-02-27T09:23:30;3.70;99.90
40756;DHT22;26461;45.630;9.418;2023-02-27T09:26:37;3.60;99.90
40756;DHT22;26461;45.630;9.418;2023-02-27T09:30:11;4.70;99.90
40756;DHT22;26461;45.630;9.418;2023-02-27T09:33:17;3.80;99.90
40756;DHT22;26461;45.630;9.418;2023-02-27T09:36:23;3.90;99.90
40756;DHT22;26461;45.630;9.418;2023-02-27T09:39:28;3.90;99.90
40756;DHT22;26461;45.630;9.418;2023-02-27T09:42:41;4.00;99.90
40756;DHT22;26461;45.630;9.418;2023-02-27T09:46:22;4.00;99.90
40756;DHT22;26461;45.630;9.418;2023-02-27T09:49:33;4.00;99.90
40756;DHT22;26461;45.630;9.418;2023-02-27T09:52:39;4.00;99.90
40756;DHT22;26461;45.630;9.418;2023-02-27T09:55:45;4.10;99.90
40756;DHT22;26461;45.630;9.418;2023-02-27T10:06:48;4.20;99.90
40756;DHT22;26461;45.630;9.418;2023-02-27T10:13:29;4.30;99.90
40756;DHT22;26461;45.630;9.418;2023-02-27T10:21:00;4.30;99.90
40756;DHT22;26461;45.630;9.418;2023-02-27T10:24:16;4.40;99.90
40756;DHT22;26461;45.630;9.418;2023-02-27T10:27:25;4.40;99.90
40756;DHT22;26461;45.630;9.418;2023-02-27T10:34:29;4.50;99.90
40756;DHT22;26461;45.630;9.418;2023-02-27T10:37:46;4.50;99.90
40756;DHT22;26461;45.630;9.418;2023-02-27T10:40:54;4.50;99.90
40756;DHT22;26461;45.630;9.418;2023-02-27T10:44:04;4.50;99.90
40756;DHT22;26461;45.630;9.418;2023-02-27T10:47:15;4.60;99.90
40756;DHT22;26461;45.630;9.418;2023-02-27T10:50:47;4.60;99.90
40756;DHT22;26461;45.630;9.418;2023-02-27T10:57:39;4.70;99.90
40756;DHT22;26461;45.630;9.418;2023-02-27T11:00:58;4.70;99.90
40756;DHT22;26461;45.630;9.418;2023-02-27T11:09:21;4.80;99.90
40756;DHT22;26461;45.630;9.418;2023-02-27T11:12:34;4.80;99.90
40756;DHT22;26461;45.630;9.418;2023-02-27T11:16:12;4.80;99.90
40756;DHT22;26461;45.630;9.418;2023-02-27T11:19:37;4.80;99.90
40756;DHT22;26461;45.630;9.418;2023-02-27T11:23:02;5.20;99.90
40756;DHT22;26461;45.630;9.418;2023-02-27T11:26:24;4.90;99.90
40756;DHT22;26461;45.630;9.418;2023-02-27T11:33:53;5.00;99.90
40756;DHT22;26461;45.630;9.418;2023-02-27T11:37:03;5.00;99.90
40756;DHT22;26461;45.630;9.418;2023-02-27T11:41:04;5.10;99.90
40756;DHT22;26461;45.630;9.418;2023-02-27T11:44:17;5.10;99.90
40756;DHT22;26461;45.630;9.418;2023-02-27T11:47:34;5.20;99.90
40756;DHT22;26461;45.630;9.418;2023-02-27T11:54:55;5.30;99.90
40756;DHT22;26461;45.630;9.418;2023-02-27T11:58:19;5.40;99.90
40756;DHT22;26461;45.630;9.418;2023-02-27T12:05:16;5.60;99.90
40756;DHT22;26461;45.630;9.418;2023-02-27T12:08:38;5.60;99.90
40756;DHT22;26461;45.630;9.418;2023-02-27T12:11:48;5.60;99.90
40756;DHT22;26461;45.630;9.418;2023-02-27T12:15:02;5.60;99.90
40756;DHT22;26461;45.630;9.418;2023-02-27T12:21:21;5.70;99.90
40756;DHT22;26461;45.630;9.418;2023-02-27T12:25:04;6.60;99.90
40756;DHT22;26461;45.630;9.418;2023-02-27T12:36:00;5.80;99.90
40756;DHT22;26461;45.630;9.418;2023-02-27T12:39:18;5.90;99.90
40756;DHT22;26461;45.630;9.418;2023-02-27T12:50:21;6.00;99.90
40756;DHT22;26461;45.630;9.418;2023-02-27T13:00:26;6.20;99.90
40756;DHT22;26461;45.630;9.418;2023-02-27T13:03:46;6.30;99.90
40756;DHT22;26461;45.630;9.418;2023-02-27T13:07:03;6.40;99.90
40756;DHT22;26461;45.630;9.418;2023-02-27T13:10:33;6.40;99.90
40756;DHT22;26461;45.630;9.418;2023-02-27T13:13:58;6.50;99.90
40756;DHT22;26461;45.630;9.418;2023-02-27T13:20:39;6.60;99.90
40756;DHT22;26461;45.630;9.418;2023-02-27T13:27:34;6.60;99.90
40756;DHT22;26461;45.630;9.418;2023-02-27T13:37:18;6.80;99.90
40756;DHT22;26461;45.630;9.418;2023-02-27T13:40:34;6.90;99.90
40756;DHT22;26461;45.630;9.418;2023-02-27T13:50:47;6.80;99.90
40756;DHT22;26461;45.630;9.418;2023-02-27T13:57:27;6.90;99.90
40756;DHT22;26461;45.630;9.418;2023-02-27T14:00:38;6.90;99.90
40756;DHT22;26461;45.630;9.418;2023-02-27T14:03:54;7.50;99.90
40756;DHT22;26461;45.630;9.418;2023-02-27T14:07:10;6.90;99.90
40756;DHT22;26461;45.630;9.418;2023-02-27T14:10:27;7.00;99.90
40756;DHT22;26461;45.630;9.418;2023-02-27T14:17:00;7.00;99.90
40756;DHT22;26461;45.630;9.418;2023-02-27T14:23:25;7.10;99.90
40756;DHT22;26461;45.630;9.418;2023-02-27T14:26:30;7.10;99.90
40756;DHT22;26461;45.630;9.418;2023-02-27T14:29:45;7.10;99.90
40756;DHT22;26461;45.630;9.418;2023-02-27T14:33:00;7.10;99.90
40756;DHT22;26461;45.630;9.418;2023-02-27T14:36:18;6.90;99.90
40756;DHT22;26461;45.630;9.418;2023-02-27T14:39:32;6.90;99.90
40756;DHT22;26461;45.630;9.418;2023-02-27T14:49:35;6.90;99.90
40756;DHT22;26461;45.630;9.418;2023-02-27T14:52:46;6.90;99.90
40756;DHT22;26461;45.630;9.418;2023-02-27T14:55:57;6.90;99.90
40756;DHT22;26461;45.630;9.418;2023-02-27T14:59:24;7.40;99.90
40756;DHT22;26461;45.630;9.418;2023-02-27T15:02:35;6.90;99.90
40756;DHT22;26461;45.630;9.418;2023-02-27T15:05:47;6.90;99.90
40756;DHT22;26461;45.630;9.418;2023-02-27T15:08:57;6.90;99.90
40756;DHT22;26461;45.630;9.418;2023-02-27T15:12:03;6.90;99.90
40756;DHT22;26461;45.630;9.418;2023-02-27T15:15:18;6.90;99.90
40756;DHT22;26461;45.630;9.418;2023-02-27T15:18:23;6.90;99.90
40756;DHT22;26461;45.630;9.418;2023-02-27T15:21:39;6.90;99.90
40756;DHT22;26461;45.630;9.418;2023-02-27T15:24:46;6.80;99.90
40756;DHT22;26461;45.630;9.418;2023-02-27T15:28:07;6.80;99.90
40756;DHT22;26461;45.630;9.418;2023-02-27T15:31:25;6.80;99.90
40756;DHT22;26461;45.630;9.418;2023-02-27T15:34:41;6.70;99.90
40756;DHT22;26461;45.630;9.418;2023-02-27T15:37:54;6.70;99.90
40756;DHT22;26461;45.630;9.418;2023-02-27T15:41:01;6.80;99.90
40756;DHT22;26461;45.630;9.418;2023-02-27T15:44:14;6.80;99.90
40756;DHT22;26461;45.630;9.418;2023-02-27T15:47:28;6.70;99.90
40756;DHT22;26461;45.630;9.418;2023-02-27T15:50:40;6.80;99.90
40756;DHT22;26461;45.630;9.418;2023-02-27T15:53:54;6.80;99.90
40756;DHT22;26461;45.630;9.418;2023-02-27T15:57:00;6.80;99.90
40756;DHT22;26461;45.630;9.418;2023-02-27T16:00:13;6.80;99.90
40756;DHT22;26461;45.630;9.418;2023-02-27T16:03:22;6.80;99.90
40756;DHT22;26461;45.630;9.418;2023-02-27T16:06:38;6.80;99.90
40756;DHT22;26461;45.630;9.418;2023-02-27T16:10:02;6.80;99.90
40756;DHT22;26461;45.630;9.418;2023-02-27T16:16:37;6.80;99.90
40756;DHT22;26461;45.630;9.418;2023-02-27T16:19:47;6.70;99.90
40756;DHT22;26461;45.630;9.418;2023-02-27T16:23:14;6.70;99.90
40756;DHT22;26461;45.630;9.418;2023-02-27T16:26:32;6.70;99.90
40756;DHT22;26461;45.630;9.418;2023-02-27T16:29:45;6.60;99.90
40756;DHT22;26461;45.630;9.418;2023-02-27T16:32:58;6.60;99.90
40756;DHT22;26461;45.630;9.418;2023-02-27T16:36:18;6.60;99.90
40756;DHT22;26461;45.630;9.418;2023-02-27T16:39:29;6.60;99.90
40756;DHT22;26461;45.630;9.418;2023-02-27T16:42:41;6.50;99.90
40756;DHT22;26461;45.630;9.418;2023-02-27T16:45:51;6.50;99.90
40756;DHT22;26461;45.630;9.418;2023-02-27T16:49:01;6.50;99.90
40756;DHT22;26461;45.630;9.418;2023-02-27T16:52:11;6.40;99.90
40756;DHT22;26461;45.630;9.418;2023-02-27T16:55:22;6.40;99.90
40756;DHT22;26461;45.630;9.418;2023-02-27T16:58:32;6.40;99.90
40756;DHT22;26461;45.630;9.418;2023-02-27T17:01:42;6.40;99.90
40756;DHT22;26461;45.630;9.418;2023-02-27T17:04:52;6.40;99.90
40756;DHT22;26461;45.630;9.418;2023-02-27T17:08:01;6.40;99.90
40756;DHT22;26461;45.630;9.418;2023-02-27T17:11:11;6.40;99.90
40756;DHT22;26461;45.630;9.418;2023-02-27T17:14:22;6.30;99.90
40756;DHT22;26461;45.630;9.418;2023-02-27T17:17:32;6.30;99.90
40756;DHT22;26461;45.630;9.418;2023-02-27T17:20:42;6.30;99.90
40756;DHT22;26461;45.630;9.418;2023-02-27T17:23:52;6.30;99.90
40756;DHT22;26461;45.630;9.418;2023-02-27T17:27:02;6.30;99.90
40756;DHT22;26461;45.630;9.418;2023-02-27T17:30:13;6.30;99.90
40756;DHT22;26461;45.630;9.418;2023-02-27T17:33:23;6.40;99.90
40756;DHT22;26461;45.630;9.418;2023-02-27T17:36:34;6.30;99.90
40756;DHT22;26461;45.630;9.418;2023-02-27T17:39:44;6.30;99.90
40756;DHT22;26461;45.630;9.418;2023-02-27T17:42:53;6.30;99.90
40756;DHT22;26461;45.630;9.418;2023-02-27T17:46:07;6.30;99.90
40756;DHT22;26461;45.630;9.418;2023-02-27T17:49:18;6.40;99.90
40756;DHT22;26461;45.630;9.418;2023-02-27T17:52:27;6.30;99.90
40756;DHT22;26461;45.630;9.418;2023-02-27T17:55:40;6.30;99.90
40756;DHT22;26461;45.630;9.418;2023-02-27T17:58:52;6.30;99.90
40756;DHT22;26461;45.630;9.418;2023-02-27T18:02:02;6.30;99.90
40756;DHT22;26461;45.630;9.418;2023-02-27T18:05:07;6.20;99.90
40756;DHT22;26461;45.630;9.418;2023-02-27T18:08:18;6.20;99.90
40756;DHT22;26461;45.630;9.418;2023-02-27T18:11:28;6.20;99.90
40756;DHT22;26461;45.630;9.418;2023-02-27T18:14:37;6.20;99.90
40756;DHT22;26461;45.630;9.418;2023-02-27T18:17:47;6.20;99.90
40756;DHT22;26461;45.630;9.418;2023-02-27T18:21:02;6.10;99.90
40756;DHT22;26461;45.630;9.418;2023-02-27T18:24:16;6.10;99.90
40756;DHT22;26461;45.630;9.418;2023-02-27T18:27:26;6.00;99.90
40756;DHT22;26461;45.630;9.418;2023-02-27T18:30:37;6.00;99.90
40756;DHT22;26461;45.630;9.418;2023-02-27T18:33:48;5.90;99.90
40756;DHT22;26461;45.630;9.418;2023-02-27T18:36:57;5.90;99.90
40756;DHT22;26461;45.630;9.418;2023-02-27T18:40:08;5.80;99.90
40756;DHT22;26461;45.630;9.418;2023-02-27T18:43:18;5.80;99.90
40756;DHT22;26461;45.630;9.418;2023-02-27T18:46:28;5.80;99.90
40756;DHT22;26461;45.630;9.418;2023-02-27T18:49:38;5.80;99.90
40756;DHT22;26461;45.630;9.418;2023-02-27T18:52:48;5.80;99.90
40756;DHT22;26461;45.630;9.418;2023-02-27T18:56:03;5.80;99.90
40756;DHT22;26461;45.630;9.418;2023-02-27T18:59:14;5.80;99.90
40756;DHT22;26461;45.630;9.418;2023-02-27T19:02:24;6.60;99.90
40756;DHT22;26461;45.630;9.418;2023-02-27T19:05:39;5.80;99.90
40756;DHT22;26461;45.630;9.418;2023-02-27T19:08:49;5.80;99.90
40756;DHT22;26461;45.630;9.418;2023-02-27T19:11:59;5.80;99.90
40756;DHT22;26461;45.630;9.418;2023-02-27T19:15:09;5.80;99.90
40756;DHT22;26461;45.630;9.418;2023-02-27T19:18:20;5.80;99.90
40756;DHT22;26461;45.630;9.418;2023-02-27T19:21:26;5.90;99.90
40756;DHT22;26461;45.630;9.418;2023-02-27T19:24:36;5.90;99.90
40756;DHT22;26461;45.630;9.418;2023-02-27T19:27:50;5.80;99.90
40756;DHT22;26461;45.630;9.418;2023-02-27T19:31:12;5.90;99.90
40756;DHT22;26461;45.630;9.418;2023-02-27T19:34:22;5.90;99.90
40756;DHT22;26461;45.630;9.418;2023-02-27T19:37:32;5.90;99.90
40756;DHT22;26461;45.630;9.418;2023-02-27T19:40:42;5.90;99.90
40756;DHT22;26461;45.630;9.418;2023-02-27T19:43:53;5.90;99.90
40756;DHT22;26461;45.630;9.418;2023-02-27T19:47:04;5.90;99.90
40756;DHT22;26461;45.630;9.418;2023-02-27T19:50:14;5.90;99.90
40756;DHT22;26461;45.630;9.418;2023-02-27T19:53:26;5.90;99.90
40756;DHT22;26461;45.630;9.418;2023-02-27T19:56:36;5.90;99.90
40756;DHT22;26461;45.630;9.418;2023-02-27T19:59:46;5.90;99.90
40756;DHT22;26461;45.630;9.418;2023-02-27T20:02:56;5.90;99.90
40756;DHT22;26461;45.630;9.418;2023-02-27T20:06:14;5.90;99.90
40756;DHT22;26461;45.630;9.418;2023-02-27T20:09:24;5.90;99.90
40756;DHT22;26461;45.630;9.418;2023-02-27T20:12:35;5.90;99.90
40756;DHT22;26461;45.630;9.418;2023-02-27T20:16:00;5.90;99.90
40756;DHT22;26461;45.630;9.418;2023-02-27T20:19:13;5.90;99.90
40756;DHT22;26461;45.630;9.418;2023-02-27T20:22:23;5.90;99.90
40756;DHT22;26461;45.630;9.418;2023-02-27T20:25:33;5.90;99.90
40756;DHT22;26461;45.630;9.418;2023-02-27T20:28:39;5.90;99.90
40756;DHT22;26461;45.630;9.418;2023-02-27T20:31:50;5.90;99.90
40756;DHT22;26461;45.630;9.418;2023-02-27T20:34:55;5.90;99.90
40756;DHT22;26461;45.630;9.418;2023-02-27T20:38:05;5.90;99.90
40756;DHT22;26461;45.630;9.418;2023-02-27T20:41:18;5.90;99.90
40756;DHT22;26461;45.630;9.418;2023-02-27T20:44:28;5.90;99.90
40756;DHT22;26461;45.630;9.418;2023-02-27T20:47:38;5.90;99.90
40756;DHT22;26461;45.630;9.418;2023-02-27T20:50:48;5.90;99.90
40756;DHT22;26461;45.630;9.418;2023-02-27T20:53:58;5.90;99.90
40756;DHT22;26461;45.630;9.418;2023-02-27T20:57:08;5.90;99.90
40756;DHT22;26461;45.630;9.418;2023-02-27T21:00:18;5.90;99.90
40756;DHT22;26461;45.630;9.418;2023-02-27T21:03:24;5.90;99.90
40756;DHT22;26461;45.630;9.418;2023-02-27T21:06:28;5.90;99.90
40756;DHT22;26461;45.630;9.418;2023-02-27T21:09:41;5.90;99.90
40756;DHT22;26461;45.630;9.418;2023-02-27T21:12:51;5.90;99.90
40756;DHT22;26461;45.630;9.418;2023-02-27T21:16:06;5.90;99.90
40756;DHT22;26461;45.630;9.418;2023-02-27T21:19:17;5.80;99.90
40756;DHT22;26461;45.630;9.418;2023-02-27T21:22:22;5.80;99.90
40756;DHT22;26461;45.630;9.418;2023-02-27T21:25:32;5.70;99.90
40756;DHT22;26461;45.630;9.418;2023-02-27T21:28:42;5.70;99.90
40756;DHT22;26461;45.630;9.418;2023-02-27T21:31:56;5.70;99.90
40756;DHT22;26461;45.630;9.418;2023-02-27T21:35:06;5.80;99.90
40756;DHT22;26461;45.630;9.418;2023-02-27T21:38:16;5.80;99.90
40756;DHT22;26461;45.630;9.418;2023-02-27T21:41:26;5.80;99.90
40756;DHT22;26461;45.630;9.418;2023-02-27T21:44:37;5.80;99.90
40756;DHT22;26461;45.630;9.418;2023-02-27T21:47:47;5.80;99.90
40756;DHT22;26461;45.630;9.418;2023-02-27T21:50:59;5.80;99.90
40756;DHT22;26461;45.630;9.418;2023-02-27T21:54:10;5.80;99.90
40756;DHT22;26461;45.630;9.418;2023-02-27T21:57:21;5.80;99.90
40756;DHT22;26461;45.630;9.418;2023-02-27T22:00:31;5.80;99.90
40756;DHT22;26461;45.630;9.418;2023-02-27T22:03:43;5.80;99.90
40756;DHT22;26461;45.630;9.418;2023-02-27T22:06:53;5.80;99.90
40756;DHT22;26461;45.630;9.418;2023-02-27T22:10:03;5.90;99.90
40756;DHT22;26461;45.630;9.418;2023-02-27T22:13:16;5.80;99.90
40756;DHT22;26461;45.630;9.418;2023-02-27T22:16:21;5.90;99.90
40756;DHT22;26461;45.630;9.418;2023-02-27T22:19:31;5.90;99.90
40756;DHT22;26461;45.630;9.418;2023-02-27T22:22:42;5.90;99.90
40756;DHT22;26461;45.630;9.418;2023-02-27T22:26:03;5.80;99.90
40756;DHT22;26461;45.630;9.418;2023-02-27T22:29:13;5.80;99.90
40756;DHT22;26461;45.630;9.418;2023-02-27T22:32:18;5.80;99.90
40756;DHT22;26461;45.630;9.418;2023-02-27T22:35:30;5.80;99.90
40756;DHT22;26461;45.630;9.418;2023-02-27T22:38:40;5.80;99.90
40756;DHT22;26461;45.630;9.418;2023-02-27T22:41:46;5.80;99.90
40756;DHT22;26461;45.630;9.418;2023-02-27T22:44:56;5.80;99.90
40756;DHT22;26461;45.630;9.418;2023-02-27T22:48:05;5.80;99.90
40756;DHT22;26461;45.630;9.418;2023-02-27T22:51:15;5.80;99.90
40756;DHT22;26461;45.630;9.418;2023-02-27T22:54:21;5.80;99.90
40756;DHT22;26461;45.630;9.418;2023-02-27T22:57:32;5.80;99.90
40756;DHT22;26461;45.630;9.418;2023-02-27T23:00:42;5.80;99.90
40756;DHT22;26461;45.630;9.418;2023-02-27T23:03:56;5.80;99.90
40756;DHT22;26461;45.630;9.418;2023-02-27T23:07:06;5.80;99.90
40756;DHT22;26461;45.630;9.418;2023-02-27T23:10:16;5.70;99.90
40756;DHT22;26461;45.630;9.418;2023-02-27T23:13:26;5.70;99.90
40756;DHT22;26461;45.630;9.418;2023-02-27T23:16:36;5.70;99.90
40756;DHT22;26461;45.630;9.418;2023-02-27T23:19:46;5.70;99.90
40756;DHT22;26461;45.630;9.418;2023-02-27T23:22:56;5.60;99.90
40756;DHT22;26461;45.630;9.418;2023-02-27T23:26:06;5.60;99.90
40756;DHT22;26461;45.630;9.418;2023-02-27T23:29:15;5.60;99.90
40756;DHT22;26461;45.630;9.418;2023-02-27T23:32:25;5.60;99.90
40756;DHT22;26461;45.630;9.418;2023-02-27T23:35:35;5.60;99.90
40756;DHT22;26461;45.630;9.418;2023-02-27T23:38:45;5.60;99.90
40756;DHT22;26461;45.630;9.418;2023-02-27T23:41:55;5.60;99.90